TimeCET,TemperatureF,Dew PointF,Humidity,Sea Level PressureIn,VisibilityMPH,Wind Direction,Wind SpeedMPH,Gust SpeedMPH,PrecipitationIn,Events,Conditions,WindDirDegrees,DateUTC
12:00 AM,49,49,98,30.34,,Calm,Calm,,,,,,2013-12-17 23:00:00
12:00 AM,50.0,48.2,94,30.33,6.2,ENE,1.2,-,N/A,,Scattered Clouds,60,2013-12-17 23:00:00
12:30 AM,50.0,48.2,94,30.30,6.2,ESE,1.2,-,N/A,,Partly Cloudy,120,2013-12-17 23:30:00
1:00 AM,49,48,93,30.32,9,NNW,2.3,,,,Scattered Clouds,340,2013-12-18 00:00:00
1:00 AM,50.0,48.2,94,30.30,6.2,NW,2.3,-,N/A,,Partly Cloudy,320,2013-12-18 00:00:00
1:30 AM,48.2,48.2,100,30.30,6.2,Calm,Calm,-,N/A,,Partly Cloudy,0,2013-12-18 00:30:00
2:00 AM,46,45,95,30.30,,NE,2.3,,,,,40,2013-12-18 01:00:00
2:00 AM,44.6,44.6,100,30.30,6.2,Calm,Calm,-,N/A,,Partly Cloudy,0,2013-12-18 01:00:00
2:30 AM,44.6,44.6,100,30.30,6.2,North,1.2,-,N/A,,Partly Cloudy,10,2013-12-18 01:30:00
3:00 AM,44,44,97,30.30,,ENE,2.3,,,,,60,2013-12-18 02:00:00
3:00 AM,46.4,44.6,93,30.30,6.2,Calm,Calm,-,N/A,,Partly Cloudy,0,2013-12-18 02:00:00
3:30 AM,42.8,42.8,100,30.27,6.2,Calm,Calm,-,N/A,,Partly Cloudy,0,2013-12-18 02:30:00
4:00 AM,43,43,100,30.30,7,NNW,2.3,,,,Scattered Clouds,330,2013-12-18 03:00:00
4:00 AM,42.8,42.8,100,30.30,6.2,NNE,2.3,-,N/A,,Partly Cloudy,20,2013-12-18 03:00:00
4:30 AM,42.8,42.8,100,30.27,6.2,Calm,Calm,-,N/A,,Partly Cloudy,0,2013-12-18 03:30:00
5:00 AM,41,41,98,30.30,,East,1.2,,,,,90,2013-12-18 04:00:00
5:00 AM,42.8,42.8,100,30.27,6.2,ESE,1.2,-,N/A,,Partly Cloudy,110,2013-12-18 04:00:00
5:30 AM,41.0,41.0,100,30.27,6.2,North,1.2,-,N/A,,Partly Cloudy,350,2013-12-18 04:30:00
6:00 AM,42,42,99,30.30,,NW,1.2,,,,,320,2013-12-18 05:00:00
6:00 AM,41.0,41.0,100,30.27,6.2,Variable,1.2,-,N/A,,Partly Cloudy,0,2013-12-18 05:00:00
6:30 AM,41.0,41.0,100,30.27,6.2,Variable,2.3,-,N/A,,Partly Cloudy,0,2013-12-18 05:30:00
7:00 AM,42,42,99,30.30,7,Calm,Calm,,,,Scattered Clouds,,2013-12-18 06:00:00
7:00 AM,42.8,42.8,100,30.27,6.2,Calm,Calm,-,N/A,,Partly Cloudy,0,2013-12-18 06:00:00
7:30 AM,39.2,39.2,100,30.27,6.2,ENE,1.2,-,N/A,Fog,Partly Cloudy,70,2013-12-18 06:30:00
8:00 AM,40,40,100,30.31,,Calm,Calm,,,,,,2013-12-18 07:00:00
8:00 AM,39.2,39.2,100,30.30,6.2,Calm,Calm,-,N/A,,Partly Cloudy,0,2013-12-18 07:00:00
8:30 AM,39.2,39.2,100,30.30,6.2,North,2.3,-,N/A,Fog,Shallow Fog,350,2013-12-18 07:30:00
9:00 AM,42,42,98,30.31,,NNE,1.2,,,,,20,2013-12-18 08:00:00
9:00 AM,41.0,41.0,100,30.30,6.2,ENE,1.2,-,N/A,Fog,Partly Cloudy,60,2013-12-18 08:00:00
9:30 AM,44.6,44.6,100,30.30,6.2,Calm,Calm,-,N/A,,Partly Cloudy,0,2013-12-18 08:30:00
10:00 AM,49,48,95,30.32,4,Calm,Calm,,,,Mist,,2013-12-18 09:00:00
10:00 AM,50.0,50.0,100,30.30,6.2,Calm,Calm,-,N/A,,Partly Cloudy,0,2013-12-18 09:00:00
10:30 AM,51.8,50.0,94,30.30,6.2,Calm,Calm,-,N/A,,Partly Cloudy,0,2013-12-18 09:30:00
11:00 AM,56,50,75,30.33,,Calm,Calm,,,,,,2013-12-18 10:00:00
11:00 AM,55.4,51.8,88,30.33,6.2,Calm,Calm,-,N/A,,Partly Cloudy,0,2013-12-18 10:00:00
11:30 AM,59.0,53.6,82,30.33,6.2,Calm,Calm,-,N/A,,Partly Cloudy,0,2013-12-18 10:30:00
12:00 PM,61,50,57,30.31,,SSW,2.3,,,,,210,2013-12-18 11:00:00
12:00 PM,60.8,50.0,68,30.30,6.2,Calm,Calm,-,N/A,,Partly Cloudy,0,2013-12-18 11:00:00
12:30 PM,60.8,50.0,68,30.30,6.2,WSW,4.6,-,N/A,,Partly Cloudy,250,2013-12-18 11:30:00
1:00 PM,62,51,57,30.28,12,SSW,8.1,,,,Partly Cloudy,210,2013-12-18 12:00:00
1:00 PM,60.8,50.0,68,30.27,6.2,SW,6.9,-,N/A,,Partly Cloudy,230,2013-12-18 12:00:00
1:30 PM,60.8,51.8,72,30.24,6.2,SSW,8.1,-,N/A,,Partly Cloudy,210,2013-12-18 12:30:00
2:00 PM,62,50,55,30.26,,SW,9.2,,,,,220,2013-12-18 13:00:00
2:00 PM,60.8,51.8,72,30.24,6.2,SW,9.2,-,N/A,,Partly Cloudy,220,2013-12-18 13:00:00
2:30 PM,60.8,48.2,63,30.24,6.2,SW,8.1,-,N/A,,Scattered Clouds,220,2013-12-18 13:30:00
3:00 PM,61,51,60,30.25,,SW,9.2,,,,,220,2013-12-18 14:00:00
3:00 PM,59.0,50.0,72,30.24,6.2,SW,6.9,-,N/A,,Scattered Clouds,230,2013-12-18 14:00:00
3:30 PM,60.8,51.8,72,30.24,6.2,SW,8.1,-,N/A,,Partly Cloudy,220,2013-12-18 14:30:00
4:00 PM,61,51,62,30.24,12,SW,8.1,,,,Scattered Clouds,220,2013-12-18 15:00:00
4:00 PM,60.8,51.8,72,30.24,6.2,SW,8.1,-,N/A,,Partly Cloudy,230,2013-12-18 15:00:00
4:30 PM,59.0,50.0,72,30.21,6.2,SW,6.9,-,N/A,,Partly Cloudy,230,2013-12-18 15:30:00
5:00 PM,59,51,67,30.23,,SW,9.2,,,,,220,2013-12-18 16:00:00
5:00 PM,59.0,51.8,77,30.21,6.2,SW,5.8,-,N/A,,Partly Cloudy,230,2013-12-18 16:00:00
5:30 PM,55.4,50.0,82,30.21,6.2,SW,3.5,-,N/A,,Partly Cloudy,220,2013-12-18 16:30:00
6:00 PM,56,50,75,30.25,,WSW,5.8,,,,,250,2013-12-18 17:00:00
6:00 PM,55.4,50.0,82,30.21,6.2,Variable,1.2,-,N/A,,Partly Cloudy,0,2013-12-18 17:00:00
6:30 PM,55.4,50.0,82,30.24,6.2,Variable,1.2,-,N/A,,Scattered Clouds,0,2013-12-18 17:30:00
7:00 PM,52,49,84,30.26,11,Calm,Calm,,,,Scattered Clouds,,2013-12-18 18:00:00
7:00 PM,51.8,48.2,88,30.24,6.2,Calm,Calm,-,N/A,,Scattered Clouds,0,2013-12-18 18:00:00
7:30 PM,50.0,48.2,94,30.24,6.2,Calm,Calm,-,N/A,,Scattered Clouds,0,2013-12-18 18:30:00
8:00 PM,49,47,92,30.27,,Calm,Calm,,,,,,2013-12-18 19:00:00
8:00 PM,50.0,48.2,94,30.24,6.2,East,1.2,-,N/A,,Scattered Clouds,80,2013-12-18 19:00:00
8:30 PM,48.2,48.2,100,30.24,6.2,Calm,Calm,-,N/A,,Scattered Clouds,0,2013-12-18 19:30:00
9:00 PM,48,47,93,30.26,,ENE,2.3,,,,,60,2013-12-18 20:00:00
9:00 PM,48.2,46.4,93,30.24,6.2,NE,2.3,-,N/A,,Scattered Clouds,50,2013-12-18 20:00:00
9:30 PM,48.2,48.2,100,30.24,6.2,NE,2.3,-,N/A,,Scattered Clouds,50,2013-12-18 20:30:00
10:00 PM,49,48,94,30.26,12,NNE,1.2,,,,Mostly Cloudy,20,2013-12-18 21:00:00
10:00 PM,48.2,48.2,100,30.24,6.2,ENE,2.3,-,N/A,,Scattered Clouds,60,2013-12-18 21:00:00
10:30 PM,50.0,48.2,94,30.24,6.2,East,2.3,-,N/A,,Scattered Clouds,80,2013-12-18 21:30:00
11:00 PM,49,48,93,30.26,,North,1.2,,,,,10,2013-12-18 22:00:00
11:00 PM,48.2,48.2,100,30.24,6.2,Variable,1.2,-,N/A,,Scattered Clouds,0,2013-12-18 22:00:00
11:30 PM,48.2,48.2,100,30.24,6.2,Calm,Calm,-,N/A,,Scattered Clouds,0,2013-12-18 22:30:00